CA37 weather

Dominican Santa Cruz Hospital Heliport
Santa Cruz, California, United States

Public forecast

Using degrees Fahrenheit for public forecast. Weather courtesy of forecast.io.

METAR (pilot weather report)

Closest report is Watsonville Municipal Airport, 9.8 nm (18.2 km) ESE. Retrieved 2019/06/18 07:53 UTC (55 minutes ago):

KWVI 180753Z AUTO 27003KT 10SM OVC007 13/11 A2992 RMK AO2 SLP132 T01330111 401940117 $

TAF (pilot weather forecast)

Closest forecast is Norman Y. Mineta San Jose International Airport, 22.5 nm (41.6 km) N. Retrieved 2019/06/18 06:39 UTC (2 hours ago):

TAF KSJC 180537Z 1806/1906 34004KT P6SM FEW070 FEW120 FM180700 14011KT P6SM FEW012 FM181800 VRB03KT P6SM FEW012 FM182100 32010KT P6SM SKC FM190500 28005KT P6SM SKC